﻿<?xml version="1.0" encoding="UTF-8" standalone="no" ?>
<gpx xmlns="http://www.topografix.com/GPX/1/1" creator="CompeGPS" version="1.1" xmlns:xsi="http://www.w3.org/2001/XMLSchema-instance" xsi:schemaLocation="http://www.topografix.com/GPX/1/1 http://www.topografix.com/GPX/1/1/gpx.xsd http://www.garmin.com/xmlschemas/GpxExtensions/v3 http://www.garmin.com/xmlschemas/GpxExtensionsv3.xsd http://www.garmin.com/xmlschemas/TrackPointExtension/v1 http://www.garmin.com/xmlschemas/TrackPointExtensionv1.xsd" xmlns:gpxtpx="http://www.garmin.com/xmlschemas/TrackPointExtension/v1">
  <metadata>
    <link href="http://www.compegps.com">
      <text>CompeGPS TEAM, SL</text>
    </link>
    <time>2015-12-31T12:38:20Z</time>
    <bounds maxlat="44.594334" maxlon="6.886549" minlat="44.551242" minlon="6.840777"/>
  </metadata>
  <trk>
    <name>Rando_200</name>
    <trkseg>
      <trkpt lat="44.591860" lon="6.840780">
        <ele>1923.1</ele>
        <time>2015-07-09T07:35:14Z</time>
      </trkpt>
      <trkpt lat="44.591957" lon="6.841117">
        <ele>1910.9</ele>
        <time>2015-07-09T07:38:46Z</time>
      </trkpt>
      <trkpt lat="44.591947" lon="6.841362">
        <ele>1911.3</ele>
        <time>2015-07-09T07:39:43Z</time>
      </trkpt>
      <trkpt lat="44.592409" lon="6.842040">
        <ele>1909.5</ele>
        <time>2015-07-09T07:40:36Z</time>
      </trkpt>
      <trkpt lat="44.593045" lon="6.842537">
        <ele>1907.0</ele>
        <time>2015-07-09T07:41:36Z</time>
      </trkpt>
      <trkpt lat="44.593260" lon="6.842898">
        <ele>1902.4</ele>
        <time>2015-07-09T07:42:07Z</time>
      </trkpt>
      <trkpt lat="44.593395" lon="6.843342">
        <ele>1907.5</ele>
        <time>2015-07-09T07:42:44Z</time>
      </trkpt>
      <trkpt lat="44.593637" lon="6.843990">
        <ele>1909.9</ele>
        <time>2015-07-09T07:44:32Z</time>
      </trkpt>
      <trkpt lat="44.593747" lon="6.844558">
        <ele>1916.0</ele>
        <time>2015-07-09T07:45:25Z</time>
      </trkpt>
      <trkpt lat="44.593758" lon="6.844688">
        <ele>1916.9</ele>
        <time>2015-07-09T07:45:33Z</time>
      </trkpt>
      <trkpt lat="44.593715" lon="6.845022">
        <ele>1923.0</ele>
        <time>2015-07-09T07:45:53Z</time>
      </trkpt>
      <trkpt lat="44.593595" lon="6.845193">
        <ele>1928.0</ele>
        <time>2015-07-09T07:46:05Z</time>
      </trkpt>
      <trkpt lat="44.593490" lon="6.845512">
        <ele>1935.1</ele>
        <time>2015-07-09T07:46:25Z</time>
      </trkpt>
      <trkpt lat="44.593473" lon="6.845970">
        <ele>1932.8</ele>
        <time>2015-07-09T07:46:52Z</time>
      </trkpt>
      <trkpt lat="44.593403" lon="6.846425">
        <ele>1931.5</ele>
        <time>2015-07-09T07:47:19Z</time>
      </trkpt>
      <trkpt lat="44.593352" lon="6.846557">
        <ele>1933.0</ele>
        <time>2015-07-09T07:47:43Z</time>
      </trkpt>
      <trkpt lat="44.593328" lon="6.847013">
        <ele>1929.0</ele>
        <time>2015-07-09T07:48:06Z</time>
      </trkpt>
      <trkpt lat="44.593375" lon="6.847478">
        <ele>1926.8</ele>
        <time>2015-07-09T07:48:32Z</time>
      </trkpt>
      <trkpt lat="44.593353" lon="6.847735">
        <ele>1924.5</ele>
        <time>2015-07-09T07:49:03Z</time>
      </trkpt>
      <trkpt lat="44.593443" lon="6.848165">
        <ele>1919.8</ele>
        <time>2015-07-09T07:49:35Z</time>
      </trkpt>
      <trkpt lat="44.593562" lon="6.848477">
        <ele>1918.6</ele>
        <time>2015-07-09T07:49:57Z</time>
      </trkpt>
      <trkpt lat="44.593682" lon="6.848917">
        <ele>1916.0</ele>
        <time>2015-07-09T07:50:23Z</time>
      </trkpt>
      <trkpt lat="44.593720" lon="6.849027">
        <ele>1915.4</ele>
        <time>2015-07-09T07:50:30Z</time>
      </trkpt>
      <trkpt lat="44.594008" lon="6.849993">
        <ele>1914.1</ele>
        <time>2015-07-09T07:51:35Z</time>
      </trkpt>
      <trkpt lat="44.594105" lon="6.850818">
        <ele>1915.0</ele>
        <time>2015-07-09T07:52:24Z</time>
      </trkpt>
      <trkpt lat="44.594168" lon="6.851163">
        <ele>1915.4</ele>
        <time>2015-07-09T07:52:45Z</time>
      </trkpt>
      <trkpt lat="44.594333" lon="6.851595">
        <ele>1917.5</ele>
        <time>2015-07-09T07:53:14Z</time>
      </trkpt>
      <trkpt lat="44.594197" lon="6.851878">
        <ele>1915.9</ele>
        <time>2015-07-09T07:53:49Z</time>
      </trkpt>
      <trkpt lat="44.594033" lon="6.852648">
        <ele>1926.9</ele>
        <time>2015-07-09T07:54:45Z</time>
      </trkpt>
      <trkpt lat="44.594093" lon="6.853115">
        <ele>1929.0</ele>
        <time>2015-07-09T07:55:20Z</time>
      </trkpt>
      <trkpt lat="44.594062" lon="6.853338">
        <ele>1933.0</ele>
        <time>2015-07-09T07:55:37Z</time>
      </trkpt>
      <trkpt lat="44.593883" lon="6.854113">
        <ele>1924.1</ele>
        <time>2015-07-09T07:56:39Z</time>
      </trkpt>
      <trkpt lat="44.593723" lon="6.854537">
        <ele>1917.1</ele>
        <time>2015-07-09T07:57:14Z</time>
      </trkpt>
      <trkpt lat="44.593553" lon="6.854808">
        <ele>1912.0</ele>
        <time>2015-07-09T07:57:44Z</time>
      </trkpt>
      <trkpt lat="44.593403" lon="6.854933">
        <ele>1908.0</ele>
        <time>2015-07-09T07:58:05Z</time>
      </trkpt>
      <trkpt lat="44.592972" lon="6.855497">
        <ele>1892.5</ele>
        <time>2015-07-09T07:59:15Z</time>
      </trkpt>
      <trkpt lat="44.592887" lon="6.855527">
        <ele>1891.8</ele>
        <time>2015-07-09T07:59:26Z</time>
      </trkpt>
      <trkpt lat="44.592597" lon="6.855758">
        <ele>1894.3</ele>
        <time>2015-07-09T08:00:04Z</time>
      </trkpt>
      <trkpt lat="44.592128" lon="6.856200">
        <ele>1933.6</ele>
        <time>2015-07-09T08:01:03Z</time>
      </trkpt>
      <trkpt lat="44.591985" lon="6.856615">
        <ele>1945.0</ele>
        <time>2015-07-09T08:01:42Z</time>
      </trkpt>
      <trkpt lat="44.591772" lon="6.856805">
        <ele>1956.1</ele>
        <time>2015-07-09T08:02:11Z</time>
      </trkpt>
      <trkpt lat="44.591680" lon="6.857008">
        <ele>1961.6</ele>
        <time>2015-07-09T08:02:36Z</time>
      </trkpt>
      <trkpt lat="44.591615" lon="6.857335">
        <ele>1971.5</ele>
        <time>2015-07-09T08:03:14Z</time>
      </trkpt>
      <trkpt lat="44.591463" lon="6.857272">
        <ele>1975.5</ele>
        <time>2015-07-09T08:03:35Z</time>
      </trkpt>
      <trkpt lat="44.591410" lon="6.857022">
        <ele>1973.1</ele>
        <time>2015-07-09T08:03:57Z</time>
      </trkpt>
      <trkpt lat="44.591557" lon="6.856483">
        <ele>1957.4</ele>
        <time>2015-07-09T08:04:52Z</time>
      </trkpt>
      <trkpt lat="44.591440" lon="6.856313">
        <ele>1961.4</ele>
        <time>2015-07-09T08:05:38Z</time>
      </trkpt>
      <trkpt lat="44.591402" lon="6.856552">
        <ele>1958.6</ele>
        <time>2015-07-09T08:06:13Z</time>
      </trkpt>
      <trkpt lat="44.591182" lon="6.857018">
        <ele>1951.6</ele>
        <time>2015-07-09T08:07:06Z</time>
      </trkpt>
      <trkpt lat="44.591190" lon="6.857485">
        <ele>1946.3</ele>
        <time>2015-07-09T08:07:58Z</time>
      </trkpt>
      <trkpt lat="44.591247" lon="6.857718">
        <ele>1944.3</ele>
        <time>2015-07-09T08:08:23Z</time>
      </trkpt>
      <trkpt lat="44.591317" lon="6.857917">
        <ele>1944.5</ele>
        <time>2015-07-09T08:08:44Z</time>
      </trkpt>
      <trkpt lat="44.591305" lon="6.858293">
        <ele>1946.4</ele>
        <time>2015-07-09T08:09:26Z</time>
      </trkpt>
      <trkpt lat="44.591198" lon="6.858592">
        <ele>1956.6</ele>
        <time>2015-07-09T08:09:56Z</time>
      </trkpt>
      <trkpt lat="44.590945" lon="6.858908">
        <ele>1973.1</ele>
        <time>2015-07-09T08:10:31Z</time>
      </trkpt>
      <trkpt lat="44.590720" lon="6.859018">
        <ele>1974.1</ele>
        <time>2015-07-09T08:10:57Z</time>
      </trkpt>
      <trkpt lat="44.590555" lon="6.858968">
        <ele>1972.3</ele>
        <time>2015-07-09T08:11:21Z</time>
      </trkpt>
      <trkpt lat="44.590347" lon="6.858765">
        <ele>1974.5</ele>
        <time>2015-07-09T08:11:52Z</time>
      </trkpt>
      <trkpt lat="44.590238" lon="6.858580">
        <ele>1981.1</ele>
        <time>2015-07-09T08:12:12Z</time>
      </trkpt>
      <trkpt lat="44.589977" lon="6.858560">
        <ele>2000.4</ele>
        <time>2015-07-09T08:12:48Z</time>
      </trkpt>
      <trkpt lat="44.589773" lon="6.858773">
        <ele>2015.3</ele>
        <time>2015-07-09T08:13:23Z</time>
      </trkpt>
      <trkpt lat="44.589473" lon="6.859020">
        <ele>2036.8</ele>
        <time>2015-07-09T08:14:08Z</time>
      </trkpt>
      <trkpt lat="44.588953" lon="6.858845">
        <ele>2059.3</ele>
        <time>2015-07-09T08:15:22Z</time>
      </trkpt>
      <trkpt lat="44.588550" lon="6.858960">
        <ele>2070.0</ele>
        <time>2015-07-09T08:16:08Z</time>
      </trkpt>
      <trkpt lat="44.588295" lon="6.858957">
        <ele>2075.0</ele>
        <time>2015-07-09T08:16:39Z</time>
      </trkpt>
      <trkpt lat="44.588135" lon="6.858868">
        <ele>2076.0</ele>
        <time>2015-07-09T08:16:56Z</time>
      </trkpt>
      <trkpt lat="44.587602" lon="6.858613">
        <ele>2063.6</ele>
        <time>2015-07-09T08:18:08Z</time>
      </trkpt>
      <trkpt lat="44.587347" lon="6.858620">
        <ele>2068.1</ele>
        <time>2015-07-09T08:18:48Z</time>
      </trkpt>
      <trkpt lat="44.587185" lon="6.858717">
        <ele>2076.8</ele>
        <time>2015-07-09T08:19:16Z</time>
      </trkpt>
      <trkpt lat="44.586935" lon="6.858725">
        <ele>2088.1</ele>
        <time>2015-07-09T08:20:03Z</time>
      </trkpt>
      <trkpt lat="44.586803" lon="6.858578">
        <ele>2094.0</ele>
        <time>2015-07-09T08:20:36Z</time>
      </trkpt>
      <trkpt lat="44.586562" lon="6.858533">
        <ele>2100.8</ele>
        <time>2015-07-09T08:21:17Z</time>
      </trkpt>
      <trkpt lat="44.586247" lon="6.858670">
        <ele>2109.1</ele>
        <time>2015-07-09T08:22:17Z</time>
      </trkpt>
      <trkpt lat="44.586083" lon="6.858767">
        <ele>2114.1</ele>
        <time>2015-07-09T08:22:49Z</time>
      </trkpt>
      <trkpt lat="44.585892" lon="6.858983">
        <ele>2120.3</ele>
        <time>2015-07-09T08:23:44Z</time>
      </trkpt>
      <trkpt lat="44.585648" lon="6.859115">
        <ele>2125.8</ele>
        <time>2015-07-09T08:24:44Z</time>
      </trkpt>
      <trkpt lat="44.585513" lon="6.859397">
        <ele>2135.5</ele>
        <time>2015-07-09T08:25:31Z</time>
      </trkpt>
      <trkpt lat="44.585390" lon="6.859390">
        <ele>2135.5</ele>
        <time>2015-07-09T08:26:09Z</time>
      </trkpt>
      <trkpt lat="44.584878" lon="6.859290">
        <ele>2153.8</ele>
        <time>2015-07-09T08:29:13Z</time>
      </trkpt>
      <trkpt lat="44.584673" lon="6.859453">
        <ele>2169.6</ele>
        <time>2015-07-09T08:30:27Z</time>
      </trkpt>
      <trkpt lat="44.584362" lon="6.859430">
        <ele>2176.3</ele>
        <time>2015-07-09T08:31:26Z</time>
      </trkpt>
      <trkpt lat="44.584150" lon="6.859613">
        <ele>2177.6</ele>
        <time>2015-07-09T08:31:56Z</time>
      </trkpt>
      <trkpt lat="44.583915" lon="6.859755">
        <ele>2177.6</ele>
        <time>2015-07-09T08:32:27Z</time>
      </trkpt>
      <trkpt lat="44.583467" lon="6.860083">
        <ele>2173.6</ele>
        <time>2015-07-09T08:33:42Z</time>
      </trkpt>
      <trkpt lat="44.583058" lon="6.860097">
        <ele>2170.3</ele>
        <time>2015-07-09T08:34:42Z</time>
      </trkpt>
      <trkpt lat="44.582807" lon="6.860162">
        <ele>2165.3</ele>
        <time>2015-07-09T08:35:21Z</time>
      </trkpt>
      <trkpt lat="44.582672" lon="6.860012">
        <ele>2168.3</ele>
        <time>2015-07-09T08:36:08Z</time>
      </trkpt>
      <trkpt lat="44.582583" lon="6.859783">
        <ele>2162.3</ele>
        <time>2015-07-09T08:36:27Z</time>
      </trkpt>
      <trkpt lat="44.582468" lon="6.859627">
        <ele>2157.1</ele>
        <time>2015-07-09T08:36:49Z</time>
      </trkpt>
      <trkpt lat="44.582185" lon="6.859343">
        <ele>2153.0</ele>
        <time>2015-07-09T08:37:36Z</time>
      </trkpt>
      <trkpt lat="44.581698" lon="6.859205">
        <ele>2160.8</ele>
        <time>2015-07-09T08:38:42Z</time>
      </trkpt>
      <trkpt lat="44.581537" lon="6.859185">
        <ele>2164.1</ele>
        <time>2015-07-09T08:39:00Z</time>
      </trkpt>
      <trkpt lat="44.581233" lon="6.859388">
        <ele>2181.3</ele>
        <time>2015-07-09T08:39:33Z</time>
      </trkpt>
      <trkpt lat="44.580912" lon="6.859535">
        <ele>2195.1</ele>
        <time>2015-07-09T08:40:15Z</time>
      </trkpt>
      <trkpt lat="44.580238" lon="6.859610">
        <ele>2208.6</ele>
        <time>2015-07-09T08:41:45Z</time>
      </trkpt>
      <trkpt lat="44.580160" lon="6.859562">
        <ele>2203.0</ele>
        <time>2015-07-09T08:45:48Z</time>
      </trkpt>
      <trkpt lat="44.579822" lon="6.859680">
        <ele>2210.5</ele>
        <time>2015-07-09T08:46:38Z</time>
      </trkpt>
      <trkpt lat="44.579730" lon="6.859682">
        <ele>2213.1</ele>
        <time>2015-07-09T08:46:52Z</time>
      </trkpt>
      <trkpt lat="44.579375" lon="6.859978">
        <ele>2220.6</ele>
        <time>2015-07-09T08:47:49Z</time>
      </trkpt>
      <trkpt lat="44.579292" lon="6.859998">
        <ele>2221.5</ele>
        <time>2015-07-09T08:48:02Z</time>
      </trkpt>
      <trkpt lat="44.578998" lon="6.860220">
        <ele>2224.3</ele>
        <time>2015-07-09T08:48:56Z</time>
      </trkpt>
      <trkpt lat="44.578675" lon="6.860628">
        <ele>2236.1</ele>
        <time>2015-07-09T08:50:22Z</time>
      </trkpt>
      <trkpt lat="44.578372" lon="6.860853">
        <ele>2239.8</ele>
        <time>2015-07-09T08:51:05Z</time>
      </trkpt>
      <trkpt lat="44.578203" lon="6.860898">
        <ele>2243.8</ele>
        <time>2015-07-09T08:51:30Z</time>
      </trkpt>
      <trkpt lat="44.577858" lon="6.860945">
        <ele>2251.6</ele>
        <time>2015-07-09T08:52:28Z</time>
      </trkpt>
      <trkpt lat="44.577530" lon="6.861088">
        <ele>2258.5</ele>
        <time>2015-07-09T08:55:00Z</time>
      </trkpt>
      <trkpt lat="44.576872" lon="6.861640">
        <ele>2265.3</ele>
        <time>2015-07-09T08:56:39Z</time>
      </trkpt>
      <trkpt lat="44.576812" lon="6.861727">
        <ele>2265.6</ele>
        <time>2015-07-09T08:56:48Z</time>
      </trkpt>
      <trkpt lat="44.576630" lon="6.862135">
        <ele>2268.3</ele>
        <time>2015-07-09T08:57:32Z</time>
      </trkpt>
      <trkpt lat="44.576080" lon="6.862647">
        <ele>2275.1</ele>
        <time>2015-07-09T08:58:52Z</time>
      </trkpt>
      <trkpt lat="44.575907" lon="6.862945">
        <ele>2275.3</ele>
        <time>2015-07-09T08:59:22Z</time>
      </trkpt>
      <trkpt lat="44.575742" lon="6.863327">
        <ele>2275.1</ele>
        <time>2015-07-09T09:00:05Z</time>
      </trkpt>
      <trkpt lat="44.575625" lon="6.863503">
        <ele>2274.3</ele>
        <time>2015-07-09T09:00:24Z</time>
      </trkpt>
      <trkpt lat="44.575317" lon="6.863533">
        <ele>2275.3</ele>
        <time>2015-07-09T09:01:00Z</time>
      </trkpt>
      <trkpt lat="44.575175" lon="6.863658">
        <ele>2276.0</ele>
        <time>2015-07-09T09:01:16Z</time>
      </trkpt>
      <trkpt lat="44.574853" lon="6.863817">
        <ele>2279.1</ele>
        <time>2015-07-09T09:01:58Z</time>
      </trkpt>
      <trkpt lat="44.574633" lon="6.863995">
        <ele>2281.6</ele>
        <time>2015-07-09T09:02:25Z</time>
      </trkpt>
      <trkpt lat="44.574303" lon="6.864117">
        <ele>2286.3</ele>
        <time>2015-07-09T09:03:07Z</time>
      </trkpt>
      <trkpt lat="44.574023" lon="6.863942">
        <ele>2292.8</ele>
        <time>2015-07-09T09:04:25Z</time>
      </trkpt>
      <trkpt lat="44.573783" lon="6.864072">
        <ele>2296.1</ele>
        <time>2015-07-09T09:04:49Z</time>
      </trkpt>
      <trkpt lat="44.573468" lon="6.864193">
        <ele>2298.6</ele>
        <time>2015-07-09T09:05:41Z</time>
      </trkpt>
      <trkpt lat="44.573215" lon="6.864238">
        <ele>2300.8</ele>
        <time>2015-07-09T09:06:13Z</time>
      </trkpt>
      <trkpt lat="44.572983" lon="6.864392">
        <ele>2304.1</ele>
        <time>2015-07-09T09:06:44Z</time>
      </trkpt>
      <trkpt lat="44.572768" lon="6.864588">
        <ele>2306.8</ele>
        <time>2015-07-09T09:07:11Z</time>
      </trkpt>
      <trkpt lat="44.572663" lon="6.864762">
        <ele>2308.1</ele>
        <time>2015-07-09T09:07:27Z</time>
      </trkpt>
      <trkpt lat="44.572283" lon="6.865232">
        <ele>2311.0</ele>
        <time>2015-07-09T09:08:40Z</time>
      </trkpt>
      <trkpt lat="44.572207" lon="6.865440">
        <ele>2312.3</ele>
        <time>2015-07-09T09:08:53Z</time>
      </trkpt>
      <trkpt lat="44.572108" lon="6.865895">
        <ele>2317.5</ele>
        <time>2015-07-09T09:09:27Z</time>
      </trkpt>
      <trkpt lat="44.572058" lon="6.866262">
        <ele>2320.1</ele>
        <time>2015-07-09T09:09:55Z</time>
      </trkpt>
      <trkpt lat="44.571972" lon="6.866583">
        <ele>2323.3</ele>
        <time>2015-07-09T09:10:44Z</time>
      </trkpt>
      <trkpt lat="44.571870" lon="6.867152">
        <ele>2328.1</ele>
        <time>2015-07-09T09:11:40Z</time>
      </trkpt>
      <trkpt lat="44.571768" lon="6.867608">
        <ele>2333.5</ele>
        <time>2015-07-09T09:12:16Z</time>
      </trkpt>
      <trkpt lat="44.571548" lon="6.867777">
        <ele>2334.1</ele>
        <time>2015-07-09T09:12:44Z</time>
      </trkpt>
      <trkpt lat="44.571415" lon="6.868110">
        <ele>2335.1</ele>
        <time>2015-07-09T09:13:20Z</time>
      </trkpt>
      <trkpt lat="44.571255" lon="6.868373">
        <ele>2336.5</ele>
        <time>2015-07-09T09:13:44Z</time>
      </trkpt>
      <trkpt lat="44.570995" lon="6.868703">
        <ele>2338.8</ele>
        <time>2015-07-09T09:14:26Z</time>
      </trkpt>
      <trkpt lat="44.570628" lon="6.868915">
        <ele>2341.0</ele>
        <time>2015-07-09T09:15:20Z</time>
      </trkpt>
      <trkpt lat="44.570413" lon="6.869070">
        <ele>2347.6</ele>
        <time>2015-07-09T09:16:43Z</time>
      </trkpt>
      <trkpt lat="44.570252" lon="6.869052">
        <ele>2352.3</ele>
        <time>2015-07-09T09:17:15Z</time>
      </trkpt>
      <trkpt lat="44.570112" lon="6.869352">
        <ele>2358.5</ele>
        <time>2015-07-09T09:17:51Z</time>
      </trkpt>
      <trkpt lat="44.569863" lon="6.869465">
        <ele>2365.3</ele>
        <time>2015-07-09T09:18:33Z</time>
      </trkpt>
      <trkpt lat="44.569738" lon="6.869628">
        <ele>2368.6</ele>
        <time>2015-07-09T09:18:54Z</time>
      </trkpt>
      <trkpt lat="44.569435" lon="6.869845">
        <ele>2377.1</ele>
        <time>2015-07-09T09:19:39Z</time>
      </trkpt>
      <trkpt lat="44.568950" lon="6.870035">
        <ele>2380.3</ele>
        <time>2015-07-09T09:20:31Z</time>
      </trkpt>
      <trkpt lat="44.568792" lon="6.870157">
        <ele>2374.8</ele>
        <time>2015-07-09T09:21:03Z</time>
      </trkpt>
      <trkpt lat="44.568538" lon="6.870218">
        <ele>2373.5</ele>
        <time>2015-07-09T09:21:59Z</time>
      </trkpt>
      <trkpt lat="44.568305" lon="6.870332">
        <ele>2374.8</ele>
        <time>2015-07-09T09:22:43Z</time>
      </trkpt>
      <trkpt lat="44.568138" lon="6.870380">
        <ele>2378.8</ele>
        <time>2015-07-09T09:23:06Z</time>
      </trkpt>
      <trkpt lat="44.567827" lon="6.870805">
        <ele>2391.1</ele>
        <time>2015-07-09T09:24:01Z</time>
      </trkpt>
      <trkpt lat="44.567805" lon="6.871177">
        <ele>2395.6</ele>
        <time>2015-07-09T09:25:04Z</time>
      </trkpt>
      <trkpt lat="44.567637" lon="6.871438">
        <ele>2399.3</ele>
        <time>2015-07-09T09:25:40Z</time>
      </trkpt>
      <trkpt lat="44.567488" lon="6.871745">
        <ele>2407.0</ele>
        <time>2015-07-09T09:26:08Z</time>
      </trkpt>
      <trkpt lat="44.567055" lon="6.872275">
        <ele>2418.8</ele>
        <time>2015-07-09T09:27:17Z</time>
      </trkpt>
      <trkpt lat="44.566672" lon="6.872370">
        <ele>2421.3</ele>
        <time>2015-07-09T09:28:16Z</time>
      </trkpt>
      <trkpt lat="44.566448" lon="6.872733">
        <ele>2426.0</ele>
        <time>2015-07-09T09:28:58Z</time>
      </trkpt>
      <trkpt lat="44.566427" lon="6.872952">
        <ele>2417.3</ele>
        <time>2015-07-09T09:29:09Z</time>
      </trkpt>
      <trkpt lat="44.566248" lon="6.873222">
        <ele>2413.8</ele>
        <time>2015-07-09T09:29:40Z</time>
      </trkpt>
      <trkpt lat="44.566037" lon="6.873403">
        <ele>2409.8</ele>
        <time>2015-07-09T09:30:10Z</time>
      </trkpt>
      <trkpt lat="44.565827" lon="6.873652">
        <ele>2413.3</ele>
        <time>2015-07-09T09:30:48Z</time>
      </trkpt>
      <trkpt lat="44.565595" lon="6.873650">
        <ele>2413.3</ele>
        <time>2015-07-09T09:32:01Z</time>
      </trkpt>
      <trkpt lat="44.565378" lon="6.873767">
        <ele>2418.5</ele>
        <time>2015-07-09T09:33:28Z</time>
      </trkpt>
      <trkpt lat="44.565102" lon="6.874055">
        <ele>2428.8</ele>
        <time>2015-07-09T09:36:55Z</time>
      </trkpt>
      <trkpt lat="44.564820" lon="6.874285">
        <ele>2427.6</ele>
        <time>2015-07-09T09:37:38Z</time>
      </trkpt>
      <trkpt lat="44.564575" lon="6.874622">
        <ele>2426.6</ele>
        <time>2015-07-09T09:38:41Z</time>
      </trkpt>
      <trkpt lat="44.564520" lon="6.875073">
        <ele>2430.8</ele>
        <time>2015-07-09T09:39:17Z</time>
      </trkpt>
      <trkpt lat="44.564437" lon="6.875408">
        <ele>2435.3</ele>
        <time>2015-07-09T09:39:49Z</time>
      </trkpt>
      <trkpt lat="44.564473" lon="6.875752">
        <ele>2436.6</ele>
        <time>2015-07-09T09:40:19Z</time>
      </trkpt>
      <trkpt lat="44.564320" lon="6.876045">
        <ele>2439.0</ele>
        <time>2015-07-09T09:40:56Z</time>
      </trkpt>
      <trkpt lat="44.564322" lon="6.876373">
        <ele>2442.1</ele>
        <time>2015-07-09T09:41:28Z</time>
      </trkpt>
      <trkpt lat="44.564033" lon="6.876637">
        <ele>2443.8</ele>
        <time>2015-07-09T09:42:23Z</time>
      </trkpt>
      <trkpt lat="44.563787" lon="6.876593">
        <ele>2439.6</ele>
        <time>2015-07-09T09:43:15Z</time>
      </trkpt>
      <trkpt lat="44.563370" lon="6.876137">
        <ele>2448.6</ele>
        <time>2015-07-09T09:45:43Z</time>
      </trkpt>
      <trkpt lat="44.563292" lon="6.876355">
        <ele>2454.8</ele>
        <time>2015-07-09T09:46:13Z</time>
      </trkpt>
      <trkpt lat="44.563023" lon="6.876632">
        <ele>2467.3</ele>
        <time>2015-07-09T09:47:27Z</time>
      </trkpt>
      <trkpt lat="44.562907" lon="6.876938">
        <ele>2471.8</ele>
        <time>2015-07-09T09:48:02Z</time>
      </trkpt>
      <trkpt lat="44.562677" lon="6.877295">
        <ele>2478.3</ele>
        <time>2015-07-09T09:48:54Z</time>
      </trkpt>
      <trkpt lat="44.562455" lon="6.877472">
        <ele>2482.5</ele>
        <time>2015-07-09T09:49:39Z</time>
      </trkpt>
      <trkpt lat="44.562343" lon="6.877860">
        <ele>2482.1</ele>
        <time>2015-07-09T09:50:36Z</time>
      </trkpt>
      <trkpt lat="44.562112" lon="6.878032">
        <ele>2482.6</ele>
        <time>2015-07-09T09:51:13Z</time>
      </trkpt>
      <trkpt lat="44.561725" lon="6.878285">
        <ele>2489.1</ele>
        <time>2015-07-09T09:52:12Z</time>
      </trkpt>
      <trkpt lat="44.561395" lon="6.878382">
        <ele>2492.1</ele>
        <time>2015-07-09T09:52:53Z</time>
      </trkpt>
      <trkpt lat="44.561178" lon="6.878478">
        <ele>2496.8</ele>
        <time>2015-07-09T09:53:35Z</time>
      </trkpt>
      <trkpt lat="44.560610" lon="6.879010">
        <ele>2502.0</ele>
        <time>2015-07-09T09:55:24Z</time>
      </trkpt>
      <trkpt lat="44.560418" lon="6.879258">
        <ele>2503.1</ele>
        <time>2015-07-09T09:56:07Z</time>
      </trkpt>
      <trkpt lat="44.560367" lon="6.879602">
        <ele>2507.6</ele>
        <time>2015-07-09T09:56:55Z</time>
      </trkpt>
      <trkpt lat="44.560207" lon="6.880005">
        <ele>2518.3</ele>
        <time>2015-07-09T09:58:18Z</time>
      </trkpt>
      <trkpt lat="44.560043" lon="6.880293">
        <ele>2523.3</ele>
        <time>2015-07-09T09:58:58Z</time>
      </trkpt>
      <trkpt lat="44.559770" lon="6.880570">
        <ele>2527.1</ele>
        <time>2015-07-09T09:59:44Z</time>
      </trkpt>
      <trkpt lat="44.559473" lon="6.880767">
        <ele>2531.8</ele>
        <time>2015-07-09T10:00:55Z</time>
      </trkpt>
      <trkpt lat="44.559123" lon="6.881068">
        <ele>2535.0</ele>
        <time>2015-07-09T10:02:01Z</time>
      </trkpt>
      <trkpt lat="44.558955" lon="6.881337">
        <ele>2533.0</ele>
        <time>2015-07-09T10:02:26Z</time>
      </trkpt>
      <trkpt lat="44.558770" lon="6.881765">
        <ele>2534.6</ele>
        <time>2015-07-09T10:03:05Z</time>
      </trkpt>
      <trkpt lat="44.558373" lon="6.882367">
        <ele>2537.8</ele>
        <time>2015-07-09T10:04:05Z</time>
      </trkpt>
      <trkpt lat="44.558188" lon="6.882620">
        <ele>2538.0</ele>
        <time>2015-07-09T10:04:34Z</time>
      </trkpt>
      <trkpt lat="44.557897" lon="6.882858">
        <ele>2541.8</ele>
        <time>2015-07-09T10:05:11Z</time>
      </trkpt>
      <trkpt lat="44.557710" lon="6.883115">
        <ele>2543.3</ele>
        <time>2015-07-09T10:05:42Z</time>
      </trkpt>
      <trkpt lat="44.557547" lon="6.883203">
        <ele>2543.8</ele>
        <time>2015-07-09T10:06:01Z</time>
      </trkpt>
      <trkpt lat="44.557290" lon="6.883520">
        <ele>2545.0</ele>
        <time>2015-07-09T10:06:41Z</time>
      </trkpt>
      <trkpt lat="44.556988" lon="6.883758">
        <ele>2546.0</ele>
        <time>2015-07-09T10:07:17Z</time>
      </trkpt>
      <trkpt lat="44.556723" lon="6.884040">
        <ele>2548.6</ele>
        <time>2015-07-09T10:07:56Z</time>
      </trkpt>
      <trkpt lat="44.556552" lon="6.884325">
        <ele>2553.8</ele>
        <time>2015-07-09T10:08:31Z</time>
      </trkpt>
      <trkpt lat="44.556417" lon="6.884448">
        <ele>2561.0</ele>
        <time>2015-07-09T10:09:03Z</time>
      </trkpt>
      <trkpt lat="44.556018" lon="6.884695">
        <ele>2573.0</ele>
        <time>2015-07-09T10:10:20Z</time>
      </trkpt>
      <trkpt lat="44.555887" lon="6.884865">
        <ele>2576.8</ele>
        <time>2015-07-09T10:10:47Z</time>
      </trkpt>
      <trkpt lat="44.555682" lon="6.885027">
        <ele>2581.3</ele>
        <time>2015-07-09T10:11:17Z</time>
      </trkpt>
      <trkpt lat="44.555357" lon="6.885177">
        <ele>2585.1</ele>
        <time>2015-07-09T10:13:02Z</time>
      </trkpt>
      <trkpt lat="44.555153" lon="6.885390">
        <ele>2588.0</ele>
        <time>2015-07-09T10:13:31Z</time>
      </trkpt>
      <trkpt lat="44.554737" lon="6.886010">
        <ele>2593.3</ele>
        <time>2015-07-09T10:14:51Z</time>
      </trkpt>
      <trkpt lat="44.554575" lon="6.886085">
        <ele>2597.1</ele>
        <time>2015-07-09T10:15:22Z</time>
      </trkpt>
      <trkpt lat="44.554253" lon="6.886120">
        <ele>2606.3</ele>
        <time>2015-07-09T10:16:23Z</time>
      </trkpt>
      <trkpt lat="44.554087" lon="6.886390">
        <ele>2613.5</ele>
        <time>2015-07-09T10:17:30Z</time>
      </trkpt>
      <trkpt lat="44.553830" lon="6.886427">
        <ele>2618.3</ele>
        <time>2015-07-09T10:18:06Z</time>
      </trkpt>
      <trkpt lat="44.553657" lon="6.886425">
        <ele>2622.1</ele>
        <time>2015-07-09T10:18:22Z</time>
      </trkpt>
      <trkpt lat="44.553075" lon="6.886243">
        <ele>2635.6</ele>
        <time>2015-07-09T10:20:05Z</time>
      </trkpt>
      <trkpt lat="44.552510" lon="6.886488">
        <ele>2643.6</ele>
        <time>2015-07-09T10:21:19Z</time>
      </trkpt>
      <trkpt lat="44.552247" lon="6.886548">
        <ele>2647.6</ele>
        <time>2015-07-09T10:21:50Z</time>
      </trkpt>
      <trkpt lat="44.552237" lon="6.886390">
        <ele>2649.0</ele>
        <time>2015-07-09T10:23:59Z</time>
      </trkpt>
      <trkpt lat="44.551948" lon="6.886137">
        <ele>2652.6</ele>
        <time>2015-07-09T10:25:29Z</time>
      </trkpt>
      <trkpt lat="44.551555" lon="6.885712">
        <ele>2663.6</ele>
        <time>2015-07-09T10:32:13Z</time>
      </trkpt>
      <trkpt lat="44.551413" lon="6.885593">
        <ele>2669.1</ele>
        <time>2015-07-09T10:32:47Z</time>
      </trkpt>
      <trkpt lat="44.551242" lon="6.885573">
        <ele>2673.6</ele>
        <time>2015-07-09T10:33:15Z</time>
      </trkpt>
      <trkpt lat="44.551392" lon="6.885470">
        <ele>2672.6</ele>
        <time>2015-07-09T10:33:52Z</time>
      </trkpt>
      <trkpt lat="44.551668" lon="6.885183">
        <ele>2676.8</ele>
        <time>2015-07-09T10:34:57Z</time>
      </trkpt>
      <trkpt lat="44.551618" lon="6.884955">
        <ele>2689.8</ele>
        <time>2015-07-09T10:36:04Z</time>
      </trkpt>
      <trkpt lat="44.551712" lon="6.884403">
        <ele>2696.3</ele>
        <time>2015-07-09T10:36:55Z</time>
      </trkpt>
      <trkpt lat="44.551882" lon="6.884130">
        <ele>2697.6</ele>
        <time>2015-07-09T10:37:28Z</time>
      </trkpt>
      <trkpt lat="44.551969" lon="6.883890">
        <ele>2699.6</ele>
        <time>2015-07-09T10:38:40Z</time>
      </trkpt>
      <trkpt lat="44.552065" lon="6.883700">
        <ele>2704.6</ele>
        <time>2015-07-09T10:39:01Z</time>
      </trkpt>
      <trkpt lat="44.552262" lon="6.883478">
        <ele>2711.3</ele>
        <time>2015-07-09T10:39:37Z</time>
      </trkpt>
      <trkpt lat="44.552260" lon="6.883072">
        <ele>2722.8</ele>
        <time>2015-07-09T10:40:28Z</time>
      </trkpt>
      <trkpt lat="44.552352" lon="6.882738">
        <ele>2726.6</ele>
        <time>2015-07-09T10:41:40Z</time>
      </trkpt>
      <trkpt lat="44.552507" lon="6.882453">
        <ele>2732.5</ele>
        <time>2015-07-09T10:42:09Z</time>
      </trkpt>
      <trkpt lat="44.552647" lon="6.882037">
        <ele>2733.0</ele>
        <time>2015-07-09T10:42:48Z</time>
      </trkpt>
      <trkpt lat="44.552832" lon="6.881625">
        <ele>2745.5</ele>
        <time>2015-07-09T10:44:12Z</time>
      </trkpt>
      <trkpt lat="44.553070" lon="6.881267">
        <ele>2752.5</ele>
        <time>2015-07-09T10:45:14Z</time>
      </trkpt>
      <trkpt lat="44.553120" lon="6.881037">
        <ele>2759.1</ele>
        <time>2015-07-09T10:45:52Z</time>
      </trkpt>
      <trkpt lat="44.553295" lon="6.880777">
        <ele>2764.8</ele>
        <time>2015-07-09T10:47:06Z</time>
      </trkpt>
      <trkpt lat="44.553403" lon="6.880573">
        <ele>2765.3</ele>
        <time>2015-07-09T10:47:26Z</time>
      </trkpt>
      <trkpt lat="44.553573" lon="6.880178">
        <ele>2764.6</ele>
        <time>2015-07-09T10:47:57Z</time>
      </trkpt>
      <trkpt lat="44.553593" lon="6.879938">
        <ele>2766.3</ele>
        <time>2015-07-09T10:48:15Z</time>
      </trkpt>
      <trkpt lat="44.553575" lon="6.879570">
        <ele>2771.8</ele>
        <time>2015-07-09T10:48:49Z</time>
      </trkpt>
      <trkpt lat="44.553452" lon="6.879245">
        <ele>2778.1</ele>
        <time>2015-07-09T10:49:39Z</time>
      </trkpt>
      <trkpt lat="44.553165" lon="6.878585">
        <ele>2782.8</ele>
        <time>2015-07-09T10:50:33Z</time>
      </trkpt>
      <trkpt lat="44.553193" lon="6.878242">
        <ele>2784.1</ele>
        <time>2015-07-09T10:51:02Z</time>
      </trkpt>
      <trkpt lat="44.553100" lon="6.877918">
        <ele>2786.1</ele>
        <time>2015-07-09T10:51:23Z</time>
      </trkpt>
      <trkpt lat="44.553003" lon="6.877710">
        <ele>2788.8</ele>
        <time>2015-07-09T10:51:38Z</time>
      </trkpt>
      <trkpt lat="44.552797" lon="6.877493">
        <ele>2793.6</ele>
        <time>2015-07-09T10:52:57Z</time>
      </trkpt>
      <trkpt lat="44.552747" lon="6.877162">
        <ele>2793.3</ele>
        <time>2015-07-09T10:53:15Z</time>
      </trkpt>
      <trkpt lat="44.552493" lon="6.876833">
        <ele>2797.3</ele>
        <time>2015-07-09T10:53:56Z</time>
      </trkpt>
      <trkpt lat="44.552413" lon="6.876762">
        <ele>2799.0</ele>
        <time>2015-07-09T10:54:11Z</time>
      </trkpt>
      <trkpt lat="44.552312" lon="6.876548">
        <ele>2793.0</ele>
        <time>2015-07-09T10:59:35Z</time>
      </trkpt>
      <trkpt lat="44.552467" lon="6.876622">
        <ele>2795.0</ele>
        <time>2015-07-09T10:59:53Z</time>
      </trkpt>
      <trkpt lat="44.552725" lon="6.876610">
        <ele>2795.6</ele>
        <time>2015-07-09T11:00:21Z</time>
      </trkpt>
      <trkpt lat="44.552847" lon="6.876790">
        <ele>2794.5</ele>
        <time>2015-07-09T11:02:48Z</time>
      </trkpt>
      <trkpt lat="44.552625" lon="6.876600">
        <ele>2794.1</ele>
        <time>2015-07-09T11:03:18Z</time>
      </trkpt>
      <trkpt lat="44.552392" lon="6.876610">
        <ele>2793.8</ele>
        <time>2015-07-09T11:03:55Z</time>
      </trkpt>
      <trkpt lat="44.552228" lon="6.876512">
        <ele>2792.3</ele>
        <time>2015-07-09T11:04:17Z</time>
      </trkpt>
      <trkpt lat="44.552312" lon="6.876152">
        <ele>2786.5</ele>
        <time>2015-07-09T11:05:02Z</time>
      </trkpt>
      <trkpt lat="44.552540" lon="6.876178">
        <ele>2778.8</ele>
        <time>2015-07-09T11:05:48Z</time>
      </trkpt>
      <trkpt lat="44.552705" lon="6.876177">
        <ele>2773.8</ele>
        <time>2015-07-09T11:06:21Z</time>
      </trkpt>
      <trkpt lat="44.553040" lon="6.876132">
        <ele>2766.6</ele>
        <time>2015-07-09T11:06:55Z</time>
      </trkpt>
      <trkpt lat="44.553270" lon="6.876287">
        <ele>2758.8</ele>
        <time>2015-07-09T11:08:08Z</time>
      </trkpt>
      <trkpt lat="44.553435" lon="6.876262">
        <ele>2753.0</ele>
        <time>2015-07-09T11:08:24Z</time>
      </trkpt>
      <trkpt lat="44.553668" lon="6.876263">
        <ele>2746.3</ele>
        <time>2015-07-09T11:09:01Z</time>
      </trkpt>
      <trkpt lat="44.553988" lon="6.876178">
        <ele>2736.8</ele>
        <time>2015-07-09T11:09:43Z</time>
      </trkpt>
      <trkpt lat="44.554315" lon="6.876043">
        <ele>2730.1</ele>
        <time>2015-07-09T11:10:23Z</time>
      </trkpt>
      <trkpt lat="44.554638" lon="6.876045">
        <ele>2726.6</ele>
        <time>2015-07-09T11:10:55Z</time>
      </trkpt>
      <trkpt lat="44.554963" lon="6.875945">
        <ele>2721.3</ele>
        <time>2015-07-09T11:11:28Z</time>
      </trkpt>
      <trkpt lat="44.555182" lon="6.875783">
        <ele>2720.0</ele>
        <time>2015-07-09T11:11:52Z</time>
      </trkpt>
      <trkpt lat="44.555365" lon="6.875518">
        <ele>2716.3</ele>
        <time>2015-07-09T11:12:26Z</time>
      </trkpt>
      <trkpt lat="44.555543" lon="6.875140">
        <ele>2714.1</ele>
        <time>2015-07-09T11:13:09Z</time>
      </trkpt>
      <trkpt lat="44.555672" lon="6.874978">
        <ele>2710.6</ele>
        <time>2015-07-09T11:13:27Z</time>
      </trkpt>
      <trkpt lat="44.556387" lon="6.874438">
        <ele>2696.1</ele>
        <time>2015-07-09T11:15:24Z</time>
      </trkpt>
      <trkpt lat="44.556735" lon="6.874128">
        <ele>2689.6</ele>
        <time>2015-07-09T11:16:03Z</time>
      </trkpt>
      <trkpt lat="44.556822" lon="6.873922">
        <ele>2687.8</ele>
        <time>2015-07-09T11:16:17Z</time>
      </trkpt>
      <trkpt lat="44.557100" lon="6.873635">
        <ele>2685.0</ele>
        <time>2015-07-09T11:16:52Z</time>
      </trkpt>
      <trkpt lat="44.557198" lon="6.873455">
        <ele>2682.8</ele>
        <time>2015-07-09T11:17:19Z</time>
      </trkpt>
      <trkpt lat="44.557375" lon="6.873187">
        <ele>2680.3</ele>
        <time>2015-07-09T11:17:47Z</time>
      </trkpt>
      <trkpt lat="44.557568" lon="6.872960">
        <ele>2677.8</ele>
        <time>2015-07-09T11:18:21Z</time>
      </trkpt>
      <trkpt lat="44.557657" lon="6.872642">
        <ele>2672.1</ele>
        <time>2015-07-09T11:18:52Z</time>
      </trkpt>
      <trkpt lat="44.557833" lon="6.872403">
        <ele>2668.8</ele>
        <time>2015-07-09T11:19:59Z</time>
      </trkpt>
      <trkpt lat="44.557922" lon="6.872342">
        <ele>2667.3</ele>
        <time>2015-07-09T11:20:10Z</time>
      </trkpt>
      <trkpt lat="44.558515" lon="6.871695">
        <ele>2656.8</ele>
        <time>2015-07-09T11:21:15Z</time>
      </trkpt>
      <trkpt lat="44.558683" lon="6.871623">
        <ele>2654.1</ele>
        <time>2015-07-09T11:21:56Z</time>
      </trkpt>
      <trkpt lat="44.559123" lon="6.871075">
        <ele>2645.0</ele>
        <time>2015-07-09T11:23:16Z</time>
      </trkpt>
      <trkpt lat="44.559308" lon="6.870823">
        <ele>2641.6</ele>
        <time>2015-07-09T11:23:46Z</time>
      </trkpt>
      <trkpt lat="44.559572" lon="6.870525">
        <ele>2637.6</ele>
        <time>2015-07-09T11:24:25Z</time>
      </trkpt>
      <trkpt lat="44.559792" lon="6.870332">
        <ele>2634.1</ele>
        <time>2015-07-09T11:24:52Z</time>
      </trkpt>
      <trkpt lat="44.559982" lon="6.870068">
        <ele>2631.8</ele>
        <time>2015-07-09T11:25:36Z</time>
      </trkpt>
      <trkpt lat="44.560223" lon="6.869967">
        <ele>2624.1</ele>
        <time>2015-07-09T11:29:34Z</time>
      </trkpt>
      <trkpt lat="44.560343" lon="6.869822">
        <ele>2619.3</ele>
        <time>2015-07-09T11:29:53Z</time>
      </trkpt>
      <trkpt lat="44.560542" lon="6.869760">
        <ele>2611.8</ele>
        <time>2015-07-09T11:33:22Z</time>
      </trkpt>
      <trkpt lat="44.560593" lon="6.869542">
        <ele>2610.8</ele>
        <time>2015-07-09T11:33:39Z</time>
      </trkpt>
      <trkpt lat="44.560720" lon="6.869867">
        <ele>2608.8</ele>
        <time>2015-07-09T12:16:50Z</time>
      </trkpt>
      <trkpt lat="44.560905" lon="6.869690">
        <ele>2605.0</ele>
        <time>2015-07-09T12:17:46Z</time>
      </trkpt>
      <trkpt lat="44.561058" lon="6.869425">
        <ele>2603.3</ele>
        <time>2015-07-09T12:18:20Z</time>
      </trkpt>
      <trkpt lat="44.561220" lon="6.869472">
        <ele>2593.8</ele>
        <time>2015-07-09T12:18:47Z</time>
      </trkpt>
      <trkpt lat="44.561583" lon="6.869223">
        <ele>2580.5</ele>
        <time>2015-07-09T12:20:18Z</time>
      </trkpt>
      <trkpt lat="44.561697" lon="6.869048">
        <ele>2572.5</ele>
        <time>2015-07-09T12:21:11Z</time>
      </trkpt>
      <trkpt lat="44.561888" lon="6.868827">
        <ele>2563.1</ele>
        <time>2015-07-09T12:21:55Z</time>
      </trkpt>
      <trkpt lat="44.562028" lon="6.868707">
        <ele>2559.8</ele>
        <time>2015-07-09T12:22:12Z</time>
      </trkpt>
      <trkpt lat="44.562163" lon="6.868420">
        <ele>2557.5</ele>
        <time>2015-07-09T12:22:34Z</time>
      </trkpt>
      <trkpt lat="44.562303" lon="6.868287">
        <ele>2555.8</ele>
        <time>2015-07-09T12:22:49Z</time>
      </trkpt>
      <trkpt lat="44.562448" lon="6.867880">
        <ele>2554.1</ele>
        <time>2015-07-09T12:23:20Z</time>
      </trkpt>
      <trkpt lat="44.562433" lon="6.867418">
        <ele>2556.8</ele>
        <time>2015-07-09T12:24:29Z</time>
      </trkpt>
      <trkpt lat="44.562325" lon="6.866992">
        <ele>2556.1</ele>
        <time>2015-07-09T12:25:41Z</time>
      </trkpt>
      <trkpt lat="44.562142" lon="6.866447">
        <ele>2553.6</ele>
        <time>2015-07-09T12:26:32Z</time>
      </trkpt>
      <trkpt lat="44.562020" lon="6.866280">
        <ele>2552.1</ele>
        <time>2015-07-09T12:26:51Z</time>
      </trkpt>
      <trkpt lat="44.561907" lon="6.866088">
        <ele>2551.8</ele>
        <time>2015-07-09T12:27:17Z</time>
      </trkpt>
      <trkpt lat="44.562007" lon="6.865797">
        <ele>2556.1</ele>
        <time>2015-07-09T12:28:18Z</time>
      </trkpt>
      <trkpt lat="44.561943" lon="6.865448">
        <ele>2558.5</ele>
        <time>2015-07-09T12:28:56Z</time>
      </trkpt>
      <trkpt lat="44.561940" lon="6.865082">
        <ele>2559.0</ele>
        <time>2015-07-09T12:29:24Z</time>
      </trkpt>
      <trkpt lat="44.562232" lon="6.864717">
        <ele>2553.8</ele>
        <time>2015-07-09T12:30:48Z</time>
      </trkpt>
      <trkpt lat="44.562427" lon="6.864343">
        <ele>2549.8</ele>
        <time>2015-07-09T12:31:28Z</time>
      </trkpt>
      <trkpt lat="44.562805" lon="6.863890">
        <ele>2550.1</ele>
        <time>2015-07-09T12:34:24Z</time>
      </trkpt>
      <trkpt lat="44.562993" lon="6.863625">
        <ele>2549.8</ele>
        <time>2015-07-09T12:35:18Z</time>
      </trkpt>
      <trkpt lat="44.563467" lon="6.863140">
        <ele>2547.6</ele>
        <time>2015-07-09T12:36:27Z</time>
      </trkpt>
      <trkpt lat="44.563685" lon="6.863178">
        <ele>2548.1</ele>
        <time>2015-07-09T12:38:25Z</time>
      </trkpt>
      <trkpt lat="44.563695" lon="6.863050">
        <ele>2546.5</ele>
        <time>2015-07-09T12:39:53Z</time>
      </trkpt>
      <trkpt lat="44.563628" lon="6.863057">
        <ele>2542.8</ele>
        <time>2015-07-09T12:41:51Z</time>
      </trkpt>
      <trkpt lat="44.563825" lon="6.862830">
        <ele>2540.5</ele>
        <time>2015-07-09T12:42:17Z</time>
      </trkpt>
      <trkpt lat="44.563968" lon="6.862703">
        <ele>2541.0</ele>
        <time>2015-07-09T12:42:36Z</time>
      </trkpt>
      <trkpt lat="44.564292" lon="6.862600">
        <ele>2542.3</ele>
        <time>2015-07-09T12:44:42Z</time>
      </trkpt>
      <trkpt lat="44.564533" lon="6.862573">
        <ele>2543.3</ele>
        <time>2015-07-09T12:45:17Z</time>
      </trkpt>
      <trkpt lat="44.564788" lon="6.862503">
        <ele>2544.3</ele>
        <time>2015-07-09T12:45:54Z</time>
      </trkpt>
      <trkpt lat="44.564937" lon="6.862397">
        <ele>2545.3</ele>
        <time>2015-07-09T12:46:12Z</time>
      </trkpt>
      <trkpt lat="44.565328" lon="6.862308">
        <ele>2546.6</ele>
        <time>2015-07-09T12:47:34Z</time>
      </trkpt>
      <trkpt lat="44.565575" lon="6.862307">
        <ele>2539.6</ele>
        <time>2015-07-09T12:48:02Z</time>
      </trkpt>
      <trkpt lat="44.565733" lon="6.862377">
        <ele>2533.6</ele>
        <time>2015-07-09T12:48:31Z</time>
      </trkpt>
      <trkpt lat="44.566147" lon="6.862265">
        <ele>2526.8</ele>
        <time>2015-07-09T12:49:36Z</time>
      </trkpt>
      <trkpt lat="44.566480" lon="6.862210">
        <ele>2523.3</ele>
        <time>2015-07-09T12:50:15Z</time>
      </trkpt>
      <trkpt lat="44.566702" lon="6.862070">
        <ele>2517.6</ele>
        <time>2015-07-09T12:50:44Z</time>
      </trkpt>
      <trkpt lat="44.566718" lon="6.862425">
        <ele>2514.6</ele>
        <time>2015-07-09T12:51:55Z</time>
      </trkpt>
      <trkpt lat="44.566795" lon="6.862645">
        <ele>2519.1</ele>
        <time>2015-07-09T12:52:23Z</time>
      </trkpt>
      <trkpt lat="44.567005" lon="6.862862">
        <ele>2518.6</ele>
        <time>2015-07-09T12:56:13Z</time>
      </trkpt>
      <trkpt lat="44.567177" lon="6.862815">
        <ele>2515.6</ele>
        <time>2015-07-09T12:57:17Z</time>
      </trkpt>
      <trkpt lat="44.567375" lon="6.863202">
        <ele>2506.8</ele>
        <time>2015-07-09T12:58:07Z</time>
      </trkpt>
      <trkpt lat="44.567650" lon="6.863495">
        <ele>2503.1</ele>
        <time>2015-07-09T12:58:46Z</time>
      </trkpt>
      <trkpt lat="44.567840" lon="6.863738">
        <ele>2496.6</ele>
        <time>2015-07-09T12:59:28Z</time>
      </trkpt>
      <trkpt lat="44.567973" lon="6.863498">
        <ele>2492.1</ele>
        <time>2015-07-09T12:59:49Z</time>
      </trkpt>
      <trkpt lat="44.568107" lon="6.863317">
        <ele>2487.8</ele>
        <time>2015-07-09T13:00:20Z</time>
      </trkpt>
      <trkpt lat="44.568267" lon="6.863542">
        <ele>2477.1</ele>
        <time>2015-07-09T13:00:54Z</time>
      </trkpt>
      <trkpt lat="44.568210" lon="6.864012">
        <ele>2469.0</ele>
        <time>2015-07-09T13:01:40Z</time>
      </trkpt>
      <trkpt lat="44.568377" lon="6.864163">
        <ele>2455.5</ele>
        <time>2015-07-09T13:02:35Z</time>
      </trkpt>
      <trkpt lat="44.568438" lon="6.864448">
        <ele>2450.0</ele>
        <time>2015-07-09T13:03:16Z</time>
      </trkpt>
      <trkpt lat="44.568447" lon="6.864802">
        <ele>2446.6</ele>
        <time>2015-07-09T13:03:40Z</time>
      </trkpt>
      <trkpt lat="44.568388" lon="6.865105">
        <ele>2445.5</ele>
        <time>2015-07-09T13:04:02Z</time>
      </trkpt>
      <trkpt lat="44.568372" lon="6.865343">
        <ele>2445.0</ele>
        <time>2015-07-09T13:04:17Z</time>
      </trkpt>
      <trkpt lat="44.568230" lon="6.865643">
        <ele>2443.0</ele>
        <time>2015-07-09T13:04:43Z</time>
      </trkpt>
      <trkpt lat="44.568125" lon="6.865948">
        <ele>2438.6</ele>
        <time>2015-07-09T13:05:11Z</time>
      </trkpt>
      <trkpt lat="44.568058" lon="6.866658">
        <ele>2435.6</ele>
        <time>2015-07-09T13:06:00Z</time>
      </trkpt>
      <trkpt lat="44.567963" lon="6.866833">
        <ele>2432.8</ele>
        <time>2015-07-09T13:06:30Z</time>
      </trkpt>
      <trkpt lat="44.567738" lon="6.866998">
        <ele>2428.5</ele>
        <time>2015-07-09T13:07:12Z</time>
      </trkpt>
      <trkpt lat="44.567597" lon="6.867263">
        <ele>2423.6</ele>
        <time>2015-07-09T13:07:58Z</time>
      </trkpt>
      <trkpt lat="44.567583" lon="6.867698">
        <ele>2413.0</ele>
        <time>2015-07-09T13:09:21Z</time>
      </trkpt>
      <trkpt lat="44.567542" lon="6.867975">
        <ele>2404.1</ele>
        <time>2015-07-09T13:10:08Z</time>
      </trkpt>
      <trkpt lat="44.567968" lon="6.868087">
        <ele>2397.3</ele>
        <time>2015-07-09T13:11:06Z</time>
      </trkpt>
      <trkpt lat="44.567952" lon="6.868330">
        <ele>2394.1</ele>
        <time>2015-07-09T13:11:29Z</time>
      </trkpt>
      <trkpt lat="44.567840" lon="6.868640">
        <ele>2390.3</ele>
        <time>2015-07-09T13:11:53Z</time>
      </trkpt>
      <trkpt lat="44.567800" lon="6.868940">
        <ele>2384.5</ele>
        <time>2015-07-09T13:12:27Z</time>
      </trkpt>
      <trkpt lat="44.567900" lon="6.869372">
        <ele>2382.1</ele>
        <time>2015-07-09T13:14:20Z</time>
      </trkpt>
      <trkpt lat="44.568207" lon="6.869605">
        <ele>2385.5</ele>
        <time>2015-07-09T13:15:42Z</time>
      </trkpt>
      <trkpt lat="44.568523" lon="6.869958">
        <ele>2380.8</ele>
        <time>2015-07-09T13:19:51Z</time>
      </trkpt>
      <trkpt lat="44.568752" lon="6.870130">
        <ele>2381.1</ele>
        <time>2015-07-09T13:20:41Z</time>
      </trkpt>
      <trkpt lat="44.568982" lon="6.870000">
        <ele>2381.1</ele>
        <time>2015-07-09T13:21:07Z</time>
      </trkpt>
      <trkpt lat="44.569312" lon="6.869885">
        <ele>2380.0</ele>
        <time>2015-07-09T13:21:39Z</time>
      </trkpt>
      <trkpt lat="44.569538" lon="6.869722">
        <ele>2375.1</ele>
        <time>2015-07-09T13:22:05Z</time>
      </trkpt>
      <trkpt lat="44.569667" lon="6.869567">
        <ele>2371.6</ele>
        <time>2015-07-09T13:22:24Z</time>
      </trkpt>
      <trkpt lat="44.569895" lon="6.869377">
        <ele>2365.8</ele>
        <time>2015-07-09T13:22:59Z</time>
      </trkpt>
      <trkpt lat="44.570085" lon="6.869158">
        <ele>2361.0</ele>
        <time>2015-07-09T13:23:26Z</time>
      </trkpt>
      <trkpt lat="44.570238" lon="6.869075">
        <ele>2355.8</ele>
        <time>2015-07-09T13:23:54Z</time>
      </trkpt>
      <trkpt lat="44.570460" lon="6.868905">
        <ele>2347.8</ele>
        <time>2015-07-09T13:24:53Z</time>
      </trkpt>
      <trkpt lat="44.570678" lon="6.868790">
        <ele>2345.5</ele>
        <time>2015-07-09T13:26:21Z</time>
      </trkpt>
      <trkpt lat="44.570850" lon="6.868783">
        <ele>2344.8</ele>
        <time>2015-07-09T13:27:03Z</time>
      </trkpt>
      <trkpt lat="44.571227" lon="6.868338">
        <ele>2341.1</ele>
        <time>2015-07-09T13:27:56Z</time>
      </trkpt>
      <trkpt lat="44.571568" lon="6.867672">
        <ele>2334.5</ele>
        <time>2015-07-09T13:28:45Z</time>
      </trkpt>
      <trkpt lat="44.571765" lon="6.867423">
        <ele>2330.3</ele>
        <time>2015-07-09T13:29:08Z</time>
      </trkpt>
      <trkpt lat="44.571842" lon="6.867103">
        <ele>2328.0</ele>
        <time>2015-07-09T13:29:28Z</time>
      </trkpt>
      <trkpt lat="44.572037" lon="6.866200">
        <ele>2323.5</ele>
        <time>2015-07-09T13:30:50Z</time>
      </trkpt>
      <trkpt lat="44.572102" lon="6.865722">
        <ele>2320.3</ele>
        <time>2015-07-09T13:31:18Z</time>
      </trkpt>
      <trkpt lat="44.572300" lon="6.865108">
        <ele>2319.1</ele>
        <time>2015-07-09T13:32:12Z</time>
      </trkpt>
      <trkpt lat="44.572530" lon="6.864755">
        <ele>2312.1</ele>
        <time>2015-07-09T13:32:40Z</time>
      </trkpt>
      <trkpt lat="44.572662" lon="6.864607">
        <ele>2309.1</ele>
        <time>2015-07-09T13:32:56Z</time>
      </trkpt>
      <trkpt lat="44.572882" lon="6.864408">
        <ele>2306.1</ele>
        <time>2015-07-09T13:33:20Z</time>
      </trkpt>
      <trkpt lat="44.573262" lon="6.864183">
        <ele>2298.6</ele>
        <time>2015-07-09T13:33:57Z</time>
      </trkpt>
      <trkpt lat="44.573598" lon="6.864172">
        <ele>2293.5</ele>
        <time>2015-07-09T13:34:25Z</time>
      </trkpt>
      <trkpt lat="44.573890" lon="6.863968">
        <ele>2291.3</ele>
        <time>2015-07-09T13:34:51Z</time>
      </trkpt>
      <trkpt lat="44.574045" lon="6.863907">
        <ele>2290.1</ele>
        <time>2015-07-09T13:35:04Z</time>
      </trkpt>
      <trkpt lat="44.574213" lon="6.864137">
        <ele>2285.3</ele>
        <time>2015-07-09T13:35:42Z</time>
      </trkpt>
      <trkpt lat="44.574538" lon="6.864035">
        <ele>2279.1</ele>
        <time>2015-07-09T13:36:13Z</time>
      </trkpt>
      <trkpt lat="44.574818" lon="6.863792">
        <ele>2277.8</ele>
        <time>2015-07-09T13:36:46Z</time>
      </trkpt>
      <trkpt lat="44.575133" lon="6.863637">
        <ele>2273.3</ele>
        <time>2015-07-09T13:37:16Z</time>
      </trkpt>
      <trkpt lat="44.575683" lon="6.863355">
        <ele>2271.8</ele>
        <time>2015-07-09T13:38:14Z</time>
      </trkpt>
      <trkpt lat="44.575872" lon="6.862950">
        <ele>2277.1</ele>
        <time>2015-07-09T13:38:44Z</time>
      </trkpt>
      <trkpt lat="44.575920" lon="6.862822">
        <ele>2277.8</ele>
        <time>2015-07-09T13:38:54Z</time>
      </trkpt>
      <trkpt lat="44.576195" lon="6.862430">
        <ele>2277.8</ele>
        <time>2015-07-09T13:39:39Z</time>
      </trkpt>
      <trkpt lat="44.576480" lon="6.862158">
        <ele>2270.3</ele>
        <time>2015-07-09T13:40:13Z</time>
      </trkpt>
      <trkpt lat="44.576635" lon="6.862060">
        <ele>2269.6</ele>
        <time>2015-07-09T13:40:56Z</time>
      </trkpt>
      <trkpt lat="44.576757" lon="6.861740">
        <ele>2268.6</ele>
        <time>2015-07-09T13:42:08Z</time>
      </trkpt>
      <trkpt lat="44.577308" lon="6.861197">
        <ele>2261.0</ele>
        <time>2015-07-09T13:43:54Z</time>
      </trkpt>
      <trkpt lat="44.577618" lon="6.861012">
        <ele>2254.6</ele>
        <time>2015-07-09T13:44:24Z</time>
      </trkpt>
      <trkpt lat="44.577783" lon="6.860960">
        <ele>2249.6</ele>
        <time>2015-07-09T13:44:44Z</time>
      </trkpt>
      <trkpt lat="44.578197" lon="6.860877">
        <ele>2240.8</ele>
        <time>2015-07-09T13:45:30Z</time>
      </trkpt>
      <trkpt lat="44.578425" lon="6.860780">
        <ele>2238.3</ele>
        <time>2015-07-09T13:45:52Z</time>
      </trkpt>
      <trkpt lat="44.578717" lon="6.860523">
        <ele>2234.6</ele>
        <time>2015-07-09T13:46:25Z</time>
      </trkpt>
      <trkpt lat="44.578967" lon="6.860215">
        <ele>2230.1</ele>
        <time>2015-07-09T13:46:53Z</time>
      </trkpt>
      <trkpt lat="44.579252" lon="6.859987">
        <ele>2225.8</ele>
        <time>2015-07-09T13:47:47Z</time>
      </trkpt>
      <trkpt lat="44.579417" lon="6.859923">
        <ele>2221.1</ele>
        <time>2015-07-09T13:48:06Z</time>
      </trkpt>
      <trkpt lat="44.579607" lon="6.859710">
        <ele>2217.1</ele>
        <time>2015-07-09T13:48:28Z</time>
      </trkpt>
      <trkpt lat="44.579692" lon="6.859677">
        <ele>2215.3</ele>
        <time>2015-07-09T13:48:39Z</time>
      </trkpt>
      <trkpt lat="44.580347" lon="6.859600">
        <ele>2199.0</ele>
        <time>2015-07-09T13:49:42Z</time>
      </trkpt>
      <trkpt lat="44.580680" lon="6.859505">
        <ele>2191.8</ele>
        <time>2015-07-09T13:50:20Z</time>
      </trkpt>
      <trkpt lat="44.580932" lon="6.859510">
        <ele>2187.1</ele>
        <time>2015-07-09T13:50:41Z</time>
      </trkpt>
      <trkpt lat="44.581080" lon="6.859410">
        <ele>2187.0</ele>
        <time>2015-07-09T13:50:55Z</time>
      </trkpt>
      <trkpt lat="44.581667" lon="6.859395">
        <ele>2180.8</ele>
        <time>2015-07-09T13:51:45Z</time>
      </trkpt>
      <trkpt lat="44.581800" lon="6.859527">
        <ele>2176.1</ele>
        <time>2015-07-09T13:52:00Z</time>
      </trkpt>
      <trkpt lat="44.582138" lon="6.859598">
        <ele>2169.3</ele>
        <time>2015-07-09T13:52:32Z</time>
      </trkpt>
      <trkpt lat="44.582450" lon="6.859812">
        <ele>2164.1</ele>
        <time>2015-07-09T13:53:05Z</time>
      </trkpt>
      <trkpt lat="44.582705" lon="6.860132">
        <ele>2158.1</ele>
        <time>2015-07-09T13:53:38Z</time>
      </trkpt>
      <trkpt lat="44.582965" lon="6.859983">
        <ele>2169.0</ele>
        <time>2015-07-09T13:54:18Z</time>
      </trkpt>
      <trkpt lat="44.583138" lon="6.859997">
        <ele>2170.8</ele>
        <time>2015-07-09T13:54:34Z</time>
      </trkpt>
      <trkpt lat="44.583410" lon="6.860218">
        <ele>2166.1</ele>
        <time>2015-07-09T13:55:04Z</time>
      </trkpt>
      <trkpt lat="44.583665" lon="6.859930">
        <ele>2170.0</ele>
        <time>2015-07-09T13:55:40Z</time>
      </trkpt>
      <trkpt lat="44.584183" lon="6.859560">
        <ele>2175.3</ele>
        <time>2015-07-09T13:56:43Z</time>
      </trkpt>
      <trkpt lat="44.584332" lon="6.859430">
        <ele>2174.8</ele>
        <time>2015-07-09T13:56:59Z</time>
      </trkpt>
      <trkpt lat="44.584575" lon="6.859378">
        <ele>2172.8</ele>
        <time>2015-07-09T13:57:31Z</time>
      </trkpt>
      <trkpt lat="44.584885" lon="6.859538">
        <ele>2161.6</ele>
        <time>2015-07-09T13:58:13Z</time>
      </trkpt>
      <trkpt lat="44.584968" lon="6.859402">
        <ele>2156.3</ele>
        <time>2015-07-09T13:59:03Z</time>
      </trkpt>
      <trkpt lat="44.585268" lon="6.859472">
        <ele>2147.8</ele>
        <time>2015-07-09T14:00:42Z</time>
      </trkpt>
      <trkpt lat="44.585525" lon="6.859403">
        <ele>2132.0</ele>
        <time>2015-07-09T14:01:49Z</time>
      </trkpt>
      <trkpt lat="44.585632" lon="6.859093">
        <ele>2132.6</ele>
        <time>2015-07-09T14:02:31Z</time>
      </trkpt>
      <trkpt lat="44.585935" lon="6.859000">
        <ele>2124.3</ele>
        <time>2015-07-09T14:03:10Z</time>
      </trkpt>
      <trkpt lat="44.586018" lon="6.858777">
        <ele>2118.1</ele>
        <time>2015-07-09T14:03:37Z</time>
      </trkpt>
      <trkpt lat="44.586497" lon="6.858542">
        <ele>2105.5</ele>
        <time>2015-07-09T14:04:38Z</time>
      </trkpt>
      <trkpt lat="44.586743" lon="6.858548">
        <ele>2105.0</ele>
        <time>2015-07-09T14:05:05Z</time>
      </trkpt>
      <trkpt lat="44.586877" lon="6.858678">
        <ele>2097.5</ele>
        <time>2015-07-09T14:05:25Z</time>
      </trkpt>
      <trkpt lat="44.587175" lon="6.858790">
        <ele>2081.6</ele>
        <time>2015-07-09T14:06:11Z</time>
      </trkpt>
      <trkpt lat="44.587330" lon="6.858690">
        <ele>2076.6</ele>
        <time>2015-07-09T14:06:32Z</time>
      </trkpt>
      <trkpt lat="44.587832" lon="6.858763">
        <ele>2070.8</ele>
        <time>2015-07-09T14:07:21Z</time>
      </trkpt>
      <trkpt lat="44.588472" lon="6.859000">
        <ele>2059.8</ele>
        <time>2015-07-09T14:08:17Z</time>
      </trkpt>
      <trkpt lat="44.588973" lon="6.858872">
        <ele>2056.1</ele>
        <time>2015-07-09T14:09:05Z</time>
      </trkpt>
      <trkpt lat="44.589357" lon="6.858977">
        <ele>2051.1</ele>
        <time>2015-07-09T14:09:35Z</time>
      </trkpt>
      <trkpt lat="44.589707" lon="6.858982">
        <ele>2045.5</ele>
        <time>2015-07-09T14:10:06Z</time>
      </trkpt>
      <trkpt lat="44.589905" lon="6.858783">
        <ele>2044.0</ele>
        <time>2015-07-09T14:10:27Z</time>
      </trkpt>
      <trkpt lat="44.590078" lon="6.858818">
        <ele>2042.0</ele>
        <time>2015-07-09T14:10:40Z</time>
      </trkpt>
      <trkpt lat="44.590528" lon="6.859132">
        <ele>2047.5</ele>
        <time>2015-07-09T14:14:25Z</time>
      </trkpt>
      <trkpt lat="44.590855" lon="6.859142">
        <ele>2040.0</ele>
        <time>2015-07-09T14:14:58Z</time>
      </trkpt>
      <trkpt lat="44.591018" lon="6.858870">
        <ele>2034.0</ele>
        <time>2015-07-09T14:15:24Z</time>
      </trkpt>
      <trkpt lat="44.591100" lon="6.858400">
        <ele>2027.9</ele>
        <time>2015-07-09T14:16:11Z</time>
      </trkpt>
      <trkpt lat="44.591013" lon="6.857925">
        <ele>2028.8</ele>
        <time>2015-07-09T14:16:49Z</time>
      </trkpt>
      <trkpt lat="44.591117" lon="6.857007">
        <ele>2009.0</ele>
        <time>2015-07-09T14:18:11Z</time>
      </trkpt>
      <trkpt lat="44.591332" lon="6.856513">
        <ele>1990.6</ele>
        <time>2015-07-09T14:18:47Z</time>
      </trkpt>
      <trkpt lat="44.591513" lon="6.856388">
        <ele>1979.1</ele>
        <time>2015-07-09T14:19:22Z</time>
      </trkpt>
      <trkpt lat="44.591410" lon="6.856943">
        <ele>1974.0</ele>
        <time>2015-07-09T14:20:01Z</time>
      </trkpt>
      <trkpt lat="44.591467" lon="6.857290">
        <ele>1972.3</ele>
        <time>2015-07-09T14:20:23Z</time>
      </trkpt>
      <trkpt lat="44.591625" lon="6.857337">
        <ele>1971.3</ele>
        <time>2015-07-09T14:20:33Z</time>
      </trkpt>
      <trkpt lat="44.591730" lon="6.856867">
        <ele>1966.8</ele>
        <time>2015-07-09T14:21:11Z</time>
      </trkpt>
      <trkpt lat="44.591890" lon="6.856640">
        <ele>1964.3</ele>
        <time>2015-07-09T14:21:34Z</time>
      </trkpt>
      <trkpt lat="44.592013" lon="6.856328">
        <ele>1961.3</ele>
        <time>2015-07-09T14:22:00Z</time>
      </trkpt>
      <trkpt lat="44.592128" lon="6.856150">
        <ele>1958.0</ele>
        <time>2015-07-09T14:22:18Z</time>
      </trkpt>
      <trkpt lat="44.592360" lon="6.856052">
        <ele>1961.0</ele>
        <time>2015-07-09T14:22:39Z</time>
      </trkpt>
      <trkpt lat="44.592620" lon="6.855753">
        <ele>1956.4</ele>
        <time>2015-07-09T14:23:12Z</time>
      </trkpt>
      <trkpt lat="44.593110" lon="6.855315">
        <ele>1952.0</ele>
        <time>2015-07-09T14:24:11Z</time>
      </trkpt>
      <trkpt lat="44.593527" lon="6.854768">
        <ele>1942.0</ele>
        <time>2015-07-09T14:24:59Z</time>
      </trkpt>
      <trkpt lat="44.593638" lon="6.854577">
        <ele>1941.3</ele>
        <time>2015-07-09T14:25:13Z</time>
      </trkpt>
      <trkpt lat="44.593758" lon="6.854272">
        <ele>1936.5</ele>
        <time>2015-07-09T14:25:34Z</time>
      </trkpt>
      <trkpt lat="44.594007" lon="6.853947">
        <ele>1937.0</ele>
        <time>2015-07-09T14:26:07Z</time>
      </trkpt>
      <trkpt lat="44.594002" lon="6.853500">
        <ele>1930.1</ele>
        <time>2015-07-09T14:26:38Z</time>
      </trkpt>
      <trkpt lat="44.594060" lon="6.853180">
        <ele>1928.3</ele>
        <time>2015-07-09T14:26:56Z</time>
      </trkpt>
      <trkpt lat="44.594075" lon="6.852823">
        <ele>1925.0</ele>
        <time>2015-07-09T14:27:16Z</time>
      </trkpt>
      <trkpt lat="44.594062" lon="6.852375">
        <ele>1921.9</ele>
        <time>2015-07-09T14:27:40Z</time>
      </trkpt>
      <trkpt lat="44.594238" lon="6.851980">
        <ele>1919.1</ele>
        <time>2015-07-09T14:28:05Z</time>
      </trkpt>
      <trkpt lat="44.594288" lon="6.851645">
        <ele>1919.5</ele>
        <time>2015-07-09T14:28:26Z</time>
      </trkpt>
      <trkpt lat="44.594240" lon="6.851367">
        <ele>1917.5</ele>
        <time>2015-07-09T14:28:47Z</time>
      </trkpt>
      <trkpt lat="44.594107" lon="6.850970">
        <ele>1918.3</ele>
        <time>2015-07-09T14:29:11Z</time>
      </trkpt>
      <trkpt lat="44.593992" lon="6.849943">
        <ele>1916.8</ele>
        <time>2015-07-09T14:30:09Z</time>
      </trkpt>
      <trkpt lat="44.593808" lon="6.849445">
        <ele>1916.8</ele>
        <time>2015-07-09T14:30:40Z</time>
      </trkpt>
      <trkpt lat="44.593628" lon="6.848653">
        <ele>1921.6</ele>
        <time>2015-07-09T14:31:29Z</time>
      </trkpt>
      <trkpt lat="44.593465" lon="6.848243">
        <ele>1924.9</ele>
        <time>2015-07-09T14:31:58Z</time>
      </trkpt>
      <trkpt lat="44.593383" lon="6.847800">
        <ele>1928.8</ele>
        <time>2015-07-09T14:32:27Z</time>
      </trkpt>
      <trkpt lat="44.593397" lon="6.847567">
        <ele>1929.6</ele>
        <time>2015-07-09T14:32:59Z</time>
      </trkpt>
      <trkpt lat="44.593333" lon="6.847243">
        <ele>1929.5</ele>
        <time>2015-07-09T14:33:17Z</time>
      </trkpt>
      <trkpt lat="44.593325" lon="6.847012">
        <ele>1929.6</ele>
        <time>2015-07-09T14:33:30Z</time>
      </trkpt>
      <trkpt lat="44.593348" lon="6.846663">
        <ele>1929.8</ele>
        <time>2015-07-09T14:33:50Z</time>
      </trkpt>
      <trkpt lat="44.593388" lon="6.846417">
        <ele>1929.8</ele>
        <time>2015-07-09T14:34:04Z</time>
      </trkpt>
      <trkpt lat="44.593488" lon="6.845983">
        <ele>1928.0</ele>
        <time>2015-07-09T14:34:38Z</time>
      </trkpt>
      <trkpt lat="44.593503" lon="6.845740">
        <ele>1926.4</ele>
        <time>2015-07-09T14:34:59Z</time>
      </trkpt>
      <trkpt lat="44.593560" lon="6.845402">
        <ele>1925.6</ele>
        <time>2015-07-09T14:35:16Z</time>
      </trkpt>
      <trkpt lat="44.593742" lon="6.845012">
        <ele>1923.0</ele>
        <time>2015-07-09T14:35:40Z</time>
      </trkpt>
      <trkpt lat="44.593750" lon="6.844670">
        <ele>1921.3</ele>
        <time>2015-07-09T14:35:59Z</time>
      </trkpt>
      <trkpt lat="44.593702" lon="6.844328">
        <ele>1920.4</ele>
        <time>2015-07-09T14:36:23Z</time>
      </trkpt>
      <trkpt lat="44.593582" lon="6.843883">
        <ele>1918.3</ele>
        <time>2015-07-09T14:36:50Z</time>
      </trkpt>
      <trkpt lat="44.593335" lon="6.843138">
        <ele>1915.5</ele>
        <time>2015-07-09T14:37:38Z</time>
      </trkpt>
      <trkpt lat="44.593100" lon="6.842615">
        <ele>1913.1</ele>
        <time>2015-07-09T14:38:13Z</time>
      </trkpt>
      <trkpt lat="44.592537" lon="6.842178">
        <ele>1911.4</ele>
        <time>2015-07-09T14:39:05Z</time>
      </trkpt>
      <trkpt lat="44.592355" lon="6.841940">
        <ele>1912.1</ele>
        <time>2015-07-09T14:39:26Z</time>
      </trkpt>
      <trkpt lat="44.592258" lon="6.841747">
        <ele>1912.1</ele>
        <time>2015-07-09T14:39:39Z</time>
      </trkpt>
      <trkpt lat="44.591920" lon="6.841240">
        <ele>1913.0</ele>
        <time>2015-07-09T14:40:21Z</time>
      </trkpt>
      <trkpt lat="44.591918" lon="6.841013">
        <ele>1917.0</ele>
        <time>2015-07-09T14:40:49Z</time>
      </trkpt>
      <trkpt lat="44.591847" lon="6.840777">
        <ele>1916.8</ele>
        <time>2015-07-09T14:42:15Z</time>
      </trkpt>
    </trkseg>
  </trk>
</gpx>
